Time;durP1;ratioP1;P1;durP2;ratioP2;P2;SDS_P1;SDS_P2;PMS_P1;PMS_P2;Temp;Humidity;BMP_temperature;BMP_pressure;BME280_temperature;BME280_humidity;BME280_pressure;Samples;Min_cycle;Max_cycle;Signal;HPM_P1;HPM_P2
2023/09/26 00:00:58;;;;;;;7.15;5.00;;;15.60;99.90;;;;;;5030828;28;20139;-77
2023/09/26 00:03:23;;;;;;;5.70;5.05;;;15.60;99.90;;;;;;5029354;28;20060;-77
2023/09/26 00:05:49;;;;;;;8.05;4.93;;;15.60;99.90;;;;;;5049841;28;20071;-77
2023/09/26 00:08:15;;;;;;;7.38;5.47;;;15.60;99.90;;;;;;5043854;28;20116;-77
2023/09/26 00:10:41;;;;;;;7.95;5.30;;;15.60;99.90;;;;;;5049010;28;20465;-77
2023/09/26 00:13:06;;;;;;;7.10;5.03;;;15.60;99.90;;;;;;5042015;28;20033;-77
2023/09/26 00:15:33;;;;;;;5.47;4.53;;;15.60;99.90;;;;;;5045084;28;20029;-77
2023/09/26 00:17:59;;;;;;;6.57;4.57;;;15.50;99.90;;;;;;5047572;28;20115;-77
2023/09/26 00:20:27;;;;;;;6.40;4.90;;;15.40;99.90;;;;;;5032936;28;20045;-77
2023/09/26 00:22:56;;;;;;;5.97;4.50;;;15.40;99.90;;;;;;5045748;28;20048;-77
2023/09/26 00:25:23;;;;;;;5.43;4.82;;;15.40;99.90;;;;;;5048065;28;20033;-77
2023/09/26 00:27:48;;;;;;;5.75;4.90;;;15.40;99.90;;;;;;5048925;28;20048;-77
2023/09/26 00:30:14;;;;;;;5.93;4.80;;;15.40;99.90;;;;;;5047875;28;20037;-77
2023/09/26 00:32:40;;;;;;;5.63;4.70;;;15.40;99.90;;;;;;5048179;28;20481;-77
2023/09/26 00:35:11;;;;;;;10.10;5.10;;;15.40;99.90;;;;;;5048089;28;20040;-77
2023/09/26 00:37:40;;;;;;;6.07;4.43;;;15.40;99.90;;;;;;5044635;28;20040;-76
2023/09/26 00:40:10;;;;;;;6.50;4.78;;;15.40;99.90;;;;;;5047412;28;20507;-76
2023/09/26 00:42:35;;;;;;;5.22;4.40;;;15.40;99.90;;;;;;5047272;28;20040;-77
2023/09/26 00:45:02;;;;;;;6.60;4.90;;;15.40;99.90;;;;;;5047784;28;20439;-76
2023/09/26 00:47:27;;;;;;;5.45;4.80;;;15.40;99.90;;;;;;5047116;28;20052;-77
2023/09/26 00:49:53;;;;;;;6.57;4.93;;;15.40;99.90;;;;;;5047828;28;20045;-76
2023/09/26 00:52:19;;;;;;;7.05;4.47;;;15.30;99.90;;;;;;5031978;28;20102;-77
2023/09/26 00:54:45;;;;;;;5.18;4.50;;;15.20;99.90;;;;;;5048817;28;20416;-77
2023/09/26 00:57:10;;;;;;;8.43;4.53;;;15.20;99.90;;;;;;5046766;28;20411;-77
2023/09/26 00:59:39;;;;;;;7.63;4.65;;;15.20;99.90;;;;;;5049464;28;20067;-77
2023/09/26 01:02:05;;;;;;;5.75;4.32;;;15.10;99.90;;;;;;5047705;28;20192;-76
2023/09/26 01:04:31;;;;;;;6.75;3.85;;;15.10;99.90;;;;;;5047147;28;20500;-76
2023/09/26 01:06:57;;;;;;;6.90;5.10;;;15.00;99.90;;;;;;5030690;28;20102;-76
2023/09/26 01:09:23;;;;;;;6.80;4.97;;;15.00;99.90;;;;;;5030971;28;20033;-77
2023/09/26 01:11:48;;;;;;;5.35;4.60;;;14.90;99.90;;;;;;5047798;28;20115;-77
2023/09/26 01:14:14;;;;;;;7.75;4.40;;;14.80;99.90;;;;;;5045622;28;20201;-77
2023/09/26 01:16:40;;;;;;;5.85;4.50;;;14.80;99.90;;;;;;5048912;28;20041;-77
2023/09/26 01:19:06;;;;;;;5.18;4.47;;;14.70;99.90;;;;;;5044866;28;20048;-76
2023/09/26 01:21:32;;;;;;;6.32;4.47;;;14.70;99.90;;;;;;5047482;28;20123;-76
2023/09/26 01:23:57;;;;;;;5.80;4.78;;;14.70;99.90;;;;;;5029670;28;20063;-76
2023/09/26 01:26:24;;;;;;;5.55;4.03;;;14.70;99.90;;;;;;5048256;28;20040;-77
2023/09/26 01:28:50;;;;;;;8.18;4.30;;;14.70;99.90;;;;;;5034558;28;20071;-76
2023/09/26 01:31:15;;;;;;;6.72;4.32;;;14.70;99.90;;;;;;5034946;28;20118;-77
2023/09/26 01:33:41;;;;;;;7.28;4.28;;;14.50;99.90;;;;;;5051627;28;20037;-77
2023/09/26 01:36:07;;;;;;;5.57;4.47;;;14.60;99.90;;;;;;5050762;28;20037;-77
2023/09/26 01:38:32;;;;;;;6.90;4.45;;;14.50;99.90;;;;;;5051162;28;20045;-76
2023/09/26 01:40:58;;;;;;;6.15;4.40;;;14.50;99.90;;;;;;5050711;28;20037;-76
2023/09/26 01:43:25;;;;;;;5.40;4.88;;;14.40;99.90;;;;;;5052041;28;20579;-76
2023/09/26 01:45:51;;;;;;;6.00;4.72;;;14.40;99.90;;;;;;5034501;28;20032;-76
2023/09/26 01:48:16;;;;;;;4.85;4.13;;;14.40;99.90;;;;;;5035975;28;20399;-76
2023/09/26 01:50:42;;;;;;;8.00;5.13;;;14.40;99.90;;;;;;5052246;28;20036;-77
2023/09/26 01:53:13;;;;;;;5.63;4.80;;;14.30;99.90;;;;;;5052731;28;20511;-76
2023/09/26 01:55:39;;;;;;;6.43;4.80;;;14.30;99.90;;;;;;5052998;28;20044;-76
2023/09/26 01:58:05;;;;;;;7.55;4.70;;;14.20;99.90;;;;;;5035896;28;20094;-76
2023/09/26 02:00:30;;;;;;;6.85;4.63;;;14.20;99.90;;;;;;5053153;28;20396;-76
2023/09/26 02:02:57;;;;;;;6.40;4.57;;;14.10;99.90;;;;;;5053127;28;20036;-76
2023/09/26 02:05:23;;;;;;;7.95;5.03;;;14.20;99.90;;;;;;5052621;28;20074;-76
2023/09/26 02:07:49;;;;;;;6.78;5.00;;;14.10;99.90;;;;;;5052690;28;20051;-76
2023/09/26 02:10:15;;;;;;;10.35;5.03;;;14.10;99.90;;;;;;5052144;28;20071;-76
2023/09/26 02:12:49;;;;;;;6.70;4.80;;;14.10;99.90;;;;;;5052666;28;20066;-76
2023/09/26 02:15:16;;;;;;;5.85;5.07;;;14.10;99.90;;;;;;5052540;28;20033;-76
2023/09/26 02:17:42;;;;;;;6.60;5.10;;;14.00;99.90;;;;;;5058585;28;20400;-76
2023/09/26 02:20:12;;;;;;;6.30;4.85;;;14.00;99.90;;;;;;5071600;28;20562;-76
2023/09/26 02:22:49;;;;;;;7.22;4.60;;;14.00;99.90;;;;;;5065377;28;20043;-76
2023/09/26 02:25:18;;;;;;;5.22;4.72;;;13.90;99.90;;;;;;5052315;28;20411;-76
2023/09/26 02:27:44;;;;;;;8.27;4.95;;;13.90;99.90;;;;;;5035398;28;20098;-76
2023/09/26 02:30:12;;;;;;;5.93;4.57;;;13.90;99.90;;;;;;5051912;28;20037;-76
2023/09/26 02:32:37;;;;;;;5.70;4.78;;;13.90;99.90;;;;;;5052519;28;20405;-76
2023/09/26 02:35:05;;;;;;;6.13;4.78;;;13.80;99.90;;;;;;5052015;28;20041;-76
2023/09/26 02:37:31;;;;;;;6.68;5.05;;;13.80;99.90;;;;;;5051217;28;20041;-76
2023/09/26 02:39:56;;;;;;;6.78;4.40;;;13.80;99.90;;;;;;5050710;28;20051;-76
2023/09/26 02:42:22;;;;;;;6.05;4.80;;;13.70;99.90;;;;;;5052005;28;20069;-76
2023/09/26 02:44:48;;;;;;;8.00;5.30;;;13.70;99.90;;;;;;5052024;28;20043;-76
2023/09/26 02:47:14;;;;;;;7.38;5.13;;;13.70;99.90;;;;;;5050865;28;20095;-76
2023/09/26 02:49:39;;;;;;;6.95;4.93;;;13.60;99.90;;;;;;5050390;28;20072;-76
2023/09/26 02:52:05;;;;;;;6.20;5.03;;;13.60;99.90;;;;;;5050724;28;20463;-76
2023/09/26 02:54:30;;;;;;;6.82;5.78;;;13.60;99.90;;;;;;5034286;28;20059;-76
2023/09/26 02:56:58;;;;;;;6.35;5.10;;;13.60;99.90;;;;;;5051380;28;20044;-76
2023/09/26 02:59:23;;;;;;;5.43;4.85;;;13.60;99.90;;;;;;5051383;28;20077;-76
2023/09/26 03:01:49;;;;;;;6.50;4.70;;;13.60;99.90;;;;;;5052146;28;20052;-76
2023/09/26 03:04:15;;;;;;;6.07;5.03;;;13.60;99.90;;;;;;5051500;28;20118;-76
2023/09/26 03:06:41;;;;;;;7.13;5.10;;;13.50;99.90;;;;;;5052789;28;20045;-75
2023/09/26 03:09:07;;;;;;;6.20;5.22;;;13.50;99.90;;;;;;5051454;28;20037;-76
2023/09/26 03:11:33;;;;;;;7.10;5.43;;;13.50;99.90;;;;;;5051062;28;20033;-76
2023/09/26 03:13:58;;;;;;;7.45;5.18;;;13.50;99.90;;;;;;5035180;28;20526;-76
2023/09/26 03:16:24;;;;;;;6.25;4.95;;;13.50;99.90;;;;;;5051556;28;20048;-75
2023/09/26 03:18:56;;;;;;;7.05;5.60;;;13.40;99.90;;;;;;5051446;28;20040;-76
2023/09/26 03:21:22;;;;;;;7.32;5.25;;;13.40;99.90;;;;;;5050446;28;20041;-76
2023/09/26 03:23:48;;;;;;;7.78;4.68;;;13.30;99.90;;;;;;5050593;28;20496;-76
2023/09/26 03:26:14;;;;;;;7.25;5.50;;;13.30;99.90;;;;;;5050811;28;20507;-76
2023/09/26 03:28:40;;;;;;;6.53;5.20;;;13.30;99.90;;;;;;5050791;28;20047;-75
2023/09/26 03:31:08;;;;;;;7.90;6.13;;;13.30;99.90;;;;;;5051290;28;20403;-75
2023/09/26 03:33:34;;;;;;;7.30;5.47;;;13.30;99.90;;;;;;5051054;28;20056;-76
2023/09/26 03:35:59;;;;;;;8.50;5.38;;;13.30;99.90;;;;;;5051190;28;20041;-76
2023/09/26 03:38:25;;;;;;;6.32;5.25;;;13.40;99.90;;;;;;5050684;28;20055;-76
2023/09/26 03:41:01;;;;;;;7.43;5.50;;;13.30;99.90;;;;;;5050669;28;20098;-76
2023/09/26 03:43:28;;;;;;;6.40;5.25;;;13.30;99.90;;;;;;5037777;28;20082;-75
2023/09/26 03:46:00;;;;;;;5.95;4.97;;;13.30;99.90;;;;;;5051966;28;20204;-76
2023/09/26 03:48:25;;;;;;;6.03;5.28;;;13.30;99.90;;;;;;5034115;28;20477;-76
2023/09/26 03:50:51;;;;;;;6.10;5.50;;;13.30;99.90;;;;;;5049828;28;20120;-76
2023/09/26 03:53:16;;;;;;;6.72;5.65;;;13.30;99.90;;;;;;5049839;28;20385;-76
2023/09/26 03:55:42;;;;;;;6.65;5.45;;;13.30;99.90;;;;;;5046751;28;20460;-76
2023/09/26 03:58:07;;;;;;;8.25;5.70;;;13.30;99.90;;;;;;5048440;28;20389;-76
2023/09/26 04:00:33;;;;;;;7.38;5.53;;;13.20;99.90;;;;;;5049026;28;20098;-76
2023/09/26 04:03:01;;;;;;;7.95;5.47;;;13.20;99.90;;;;;;5049264;28;20051;-76
2023/09/26 04:05:27;;;;;;;7.15;5.15;;;13.20;99.90;;;;;;5048449;28;20040;-75
2023/09/26 04:07:52;;;;;;;6.15;5.28;;;13.20;99.90;;;;;;5048182;28;20087;-76
2023/09/26 04:10:18;;;;;;;8.10;5.57;;;13.10;99.90;;;;;;5031912;28;20051;-76
2023/09/26 04:12:43;;;;;;;7.57;5.40;;;13.00;99.90;;;;;;5050462;28;20052;-75
2023/09/26 04:15:09;;;;;;;8.35;5.55;;;13.00;99.90;;;;;;5050075;28;20037;-77
2023/09/26 04:17:35;;;;;;;6.22;5.60;;;13.00;99.90;;;;;;5062176;28;20106;-77
2023/09/26 04:20:06;;;;;;;8.38;6.28;;;13.00;99.90;;;;;;5052372;28;20080;-77
2023/09/26 04:22:31;;;;;;;6.90;6.20;;;13.00;99.90;;;;;;5050303;28;20032;-77
2023/09/26 04:24:57;;;;;;;7.63;6.20;;;13.00;99.90;;;;;;5049556;28;20581;-77
2023/09/26 04:27:22;;;;;;;7.25;6.15;;;13.00;99.90;;;;;;5049203;28;20041;-77
2023/09/26 04:29:51;;;;;;;6.90;6.10;;;13.00;99.90;;;;;;5049072;28;20048;-77
2023/09/26 04:32:17;;;;;;;7.95;6.15;;;13.00;99.90;;;;;;5050352;28;20459;-77
2023/09/26 04:34:42;;;;;;;8.35;6.43;;;13.10;99.90;;;;;;5050097;28;20047;-77
2023/09/26 04:37:08;;;;;;;9.65;6.53;;;13.10;99.90;;;;;;5050002;28;20059;-77
2023/09/26 04:39:33;;;;;;;10.02;6.63;;;13.20;99.90;;;;;;5049683;28;20037;-77
2023/09/26 04:41:59;;;;;;;7.88;6.63;;;13.20;99.90;;;;;;5033359;28;20481;-77
2023/09/26 04:44:24;;;;;;;8.73;6.43;;;13.30;99.90;;;;;;5049573;28;20037;-77
2023/09/26 04:46:50;;;;;;;8.38;7.05;;;13.30;99.90;;;;;;5049859;28;20052;-77
2023/09/26 04:49:15;;;;;;;10.55;6.95;;;13.30;99.90;;;;;;5049517;28;20047;-77
2023/09/26 04:51:41;;;;;;;9.25;7.00;;;13.40;99.90;;;;;;5049850;28;20123;-78
2023/09/26 04:54:07;;;;;;;11.85;7.38;;;13.40;99.90;;;;;;5050178;28;20464;-78
2023/09/26 04:56:34;;;;;;;8.30;7.03;;;13.40;99.90;;;;;;5050038;28;20120;-77
2023/09/26 04:59:00;;;;;;;8.65;7.20;;;13.40;99.90;;;;;;5032946;28;20041;-78
2023/09/26 05:01:26;;;;;;;8.75;7.15;;;13.50;99.90;;;;;;5047212;28;20056;-78
2023/09/26 05:03:51;;;;;;;11.20;8.13;;;13.60;99.90;;;;;;5048764;28;20114;-78
2023/09/26 05:06:17;;;;;;;11.55;8.63;;;13.60;99.90;;;;;;5046949;28;20041;-77
2023/09/26 05:08:43;;;;;;;10.25;7.43;;;13.60;99.90;;;;;;5048086;28;20411;-77
2023/09/26 05:11:14;;;;;;;8.88;7.65;;;13.60;99.90;;;;;;5045593;28;20040;-77
2023/09/26 05:13:39;;;;;;;10.10;7.70;;;13.60;99.90;;;;;;5026284;28;20156;-77
2023/09/26 05:16:08;;;;;;;9.93;7.60;;;13.60;99.90;;;;;;5044636;28;20069;-78
2023/09/26 05:18:33;;;;;;;10.18;7.65;;;13.60;99.90;;;;;;5048309;28;20095;-77
2023/09/26 05:21:03;;;;;;;9.68;7.45;;;13.70;99.90;;;;;;5049406;28;20045;-77
2023/09/26 05:23:29;;;;;;;8.77;7.47;;;13.60;99.90;;;;;;5047434;28;20072;-78
2023/09/26 05:25:54;;;;;;;10.30;8.75;;;13.60;99.90;;;;;;5047696;28;20037;-78
2023/09/26 05:28:20;;;;;;;10.07;8.15;;;13.60;99.90;;;;;;5048702;28;20036;-78
2023/09/26 05:30:46;;;;;;;9.65;7.90;;;13.50;99.90;;;;;;5050695;28;20127;-78
2023/09/26 05:33:11;;;;;;;8.55;7.57;;;13.50;99.90;;;;;;5047706;28;20445;-78
2023/09/26 05:35:37;;;;;;;10.07;8.15;;;13.50;99.90;;;;;;5039668;28;20128;-78
2023/09/26 05:38:02;;;;;;;14.02;8.25;;;13.40;99.90;;;;;;5042518;28;20043;-78
2023/09/26 05:40:28;;;;;;;9.82;8.52;;;13.40;99.90;;;;;;5041376;28;20124;-78
2023/09/26 05:42:53;;;;;;;10.13;8.43;;;13.40;99.90;;;;;;5040756;28;20076;-78
2023/09/26 05:45:19;;;;;;;9.88;7.93;;;13.40;99.90;;;;;;5046755;28;20132;-78
2023/09/26 05:47:44;;;;;;;10.73;9.00;;;13.40;99.90;;;;;;5046472;28;20091;-78
2023/09/26 05:50:10;;;;;;;10.70;8.32;;;13.40;99.90;;;;;;5043728;28;20500;-78
2023/09/26 05:52:35;;;;;;;9.80;8.63;;;13.40;99.90;;;;;;5047438;28;20117;-78
2023/09/26 05:55:01;;;;;;;9.35;8.32;;;13.40;99.90;;;;;;5045787;28;20450;-78
2023/09/26 05:57:30;;;;;;;9.70;8.45;;;13.40;99.90;;;;;;5049047;28;20041;-78
2023/09/26 05:59:55;;;;;;;11.07;8.40;;;13.40;99.90;;;;;;5047797;28;20040;-78
2023/09/26 06:02:21;;;;;;;9.60;8.05;;;13.40;99.90;;;;;;5049053;28;20467;-78
2023/09/26 06:04:46;;;;;;;9.80;8.05;;;13.40;99.90;;;;;;5048039;28;20041;-78
2023/09/26 06:07:13;;;;;;;11.13;8.23;;;13.40;99.90;;;;;;5046884;28;20046;-78
2023/09/26 06:09:39;;;;;;;9.57;8.02;;;13.40;99.90;;;;;;5040690;28;20044;-78
2023/09/26 06:12:04;;;;;;;11.35;8.55;;;13.40;99.90;;;;;;5040578;28;20033;-78
2023/09/26 06:14:31;;;;;;;10.10;8.32;;;13.40;99.90;;;;;;5049680;28;20388;-78
2023/09/26 06:16:57;;;;;;;10.60;7.82;;;13.40;99.90;;;;;;5025946;28;20075;-79
2023/09/26 06:19:22;;;;;;;9.07;8.02;;;13.40;99.90;;;;;;5044068;28;20500;-78
2023/09/26 06:21:48;;;;;;;11.48;8.05;;;13.40;99.90;;;;;;5044217;28;20071;-78
2023/09/26 06:24:13;;;;;;;9.10;8.13;;;13.50;99.90;;;;;;5029482;28;20101;-79
2023/09/26 06:26:39;;;;;;;10.18;8.05;;;13.50;99.90;;;;;;5049022;28;20075;-78
2023/09/26 06:29:04;;;;;;;10.15;8.10;;;13.50;99.90;;;;;;5049451;28;20041;-78
2023/09/26 06:31:30;;;;;;;11.18;8.02;;;13.60;99.90;;;;;;5048516;28;20044;-78
2023/09/26 06:34:00;;;;;;;10.27;8.75;;;13.70;99.90;;;;;;5042568;28;20037;-79
2023/09/26 06:36:30;;;;;;;9.13;7.80;;;13.70;99.90;;;;;;5045173;28;20041;-78
2023/09/26 06:38:56;;;;;;;10.57;8.10;;;13.80;99.90;;;;;;5048566;28;20518;-78
2023/09/26 06:41:22;;;;;;;11.40;8.73;;;13.80;99.90;;;;;;5043404;28;20322;-78
2023/09/26 06:43:48;;;;;;;11.20;8.70;;;13.80;99.90;;;;;;5044227;28;20037;-78
2023/09/26 06:46:13;;;;;;;12.55;8.63;;;13.90;99.90;;;;;;5052831;28;20063;-78
2023/09/26 06:48:41;;;;;;;10.98;9.10;;;13.90;99.90;;;;;;5045333;28;20062;-78
2023/09/26 06:51:08;;;;;;;11.70;8.85;;;14.00;99.90;;;;;;5049137;28;20048;-78
2023/09/26 06:53:35;;;;;;;10.73;8.68;;;14.10;99.90;;;;;;5045630;28;20037;-78
2023/09/26 06:56:05;;;;;;;9.52;8.50;;;14.10;99.90;;;;;;5036751;28;20554;-78
2023/09/26 06:58:31;;;;;;;11.05;8.38;;;14.20;99.90;;;;;;5027855;28;20033;-78
2023/09/26 07:00:57;;;;;;;11.27;8.05;;;14.20;99.90;;;;;;5049665;28;20122;-78
2023/09/26 07:03:22;;;;;;;10.43;8.50;;;14.30;99.90;;;;;;5035705;28;20045;-78
2023/09/26 07:05:48;;;;;;;10.02;8.65;;;14.40;99.90;;;;;;5051196;28;20100;-78
2023/09/26 07:08:15;;;;;;;11.05;8.40;;;14.50;99.90;;;;;;5044642;28;20056;-78
2023/09/26 07:10:40;;;;;;;11.38;8.07;;;14.50;99.90;;;;;;5042625;28;20045;-78
2023/09/26 07:13:06;;;;;;;11.57;9.13;;;14.50;99.90;;;;;;5035559;28;20445;-78
2023/09/26 07:15:32;;;;;;;9.88;8.73;;;14.50;99.90;;;;;;5052509;28;20033;-78
2023/09/26 07:18:06;;;;;;;11.23;9.07;;;14.60;99.90;;;;;;5042973;28;20131;-78
2023/09/26 07:20:33;;;;;;;10.68;8.20;;;14.70;99.90;;;;;;5045353;28;20037;-78
2023/09/26 07:22:59;;;;;;;9.23;7.68;;;14.70;99.90;;;;;;5046223;28;20049;-78
2023/09/26 07:25:25;;;;;;;9.60;7.97;;;14.80;99.90;;;;;;5039787;28;20045;-78
2023/09/26 07:27:50;;;;;;;13.82;8.40;;;14.90;99.90;;;;;;5022284;28;20552;-78
2023/09/26 07:30:16;;;;;;;11.20;8.18;;;15.00;99.90;;;;;;5037060;28;20764;-78
2023/09/26 07:32:41;;;;;;;10.82;8.73;;;15.10;99.90;;;;;;5021716;28;20043;-78
2023/09/26 07:35:08;;;;;;;10.55;8.15;;;15.10;99.90;;;;;;5044469;28;20120;-79
2023/09/26 07:37:34;;;;;;;10.13;8.13;;;15.10;99.90;;;;;;5050475;28;20064;-78
2023/09/26 07:40:01;;;;;;;11.65;8.45;;;15.10;99.90;;;;;;5044352;28;20608;-78
2023/09/26 07:42:27;;;;;;;12.52;8.20;;;15.20;99.90;;;;;;5044318;28;20484;-78
2023/09/26 07:44:55;;;;;;;13.00;8.90;;;15.20;99.90;;;;;;5043396;28;20048;-79
2023/09/26 07:47:21;;;;;;;9.98;7.95;;;15.20;99.90;;;;;;5048229;28;20120;-78
2023/09/26 07:49:46;;;;;;;13.45;8.75;;;15.30;99.90;;;;;;5051617;28;20112;-79
2023/09/26 07:52:12;;;;;;;13.30;8.60;;;15.40;99.90;;;;;;5046949;28;20456;-78
2023/09/26 07:54:38;;;;;;;13.77;9.13;;;15.50;99.90;;;;;;5050333;28;20045;-78
2023/09/26 07:57:03;;;;;;;10.70;8.73;;;15.60;99.90;;;;;;5050362;28;20037;-79
2023/09/26 07:59:29;;;;;;;11.00;7.82;;;15.80;99.90;;;;;;5054517;28;20082;-78
2023/09/26 08:01:55;;;;;;;12.63;8.27;;;15.90;99.90;;;;;;5040424;28;20091;-79
2023/09/26 08:04:20;;;;;;;13.55;8.20;;;15.90;99.90;;;;;;5040327;28;20513;-79
2023/09/26 08:06:46;;;;;;;11.45;9.30;;;16.00;99.90;;;;;;5049342;28;20385;-78
2023/09/26 08:09:12;;;;;;;12.98;8.95;;;16.00;99.90;;;;;;5050975;28;20049;-79
2023/09/26 08:11:40;;;;;;;12.25;8.20;;;16.00;99.90;;;;;;5037398;28;20114;-78
2023/09/26 08:14:05;;;;;;;12.43;8.63;;;16.10;99.90;;;;;;5046974;28;20043;-78
2023/09/26 08:16:31;;;;;;;12.02;8.23;;;16.20;99.90;;;;;;5044895;28;20403;-78
2023/09/26 08:18:56;;;;;;;12.80;8.05;;;16.30;99.90;;;;;;5050232;28;20381;-79
2023/09/26 08:21:24;;;;;;;14.18;8.50;;;16.40;99.90;;;;;;5044664;28;20129;-78
2023/09/26 08:23:50;;;;;;;13.63;8.32;;;16.40;99.90;;;;;;5046557;28;20041;-78
2023/09/26 08:26:15;;;;;;;11.35;8.75;;;16.50;99.90;;;;;;5042551;28;20445;-78
2023/09/26 08:28:41;;;;;;;11.02;8.43;;;16.50;99.90;;;;;;5047538;28;20041;-78
2023/09/26 08:31:15;;;;;;;10.80;7.88;;;16.50;99.90;;;;;;5051215;28;20037;-78
2023/09/26 08:33:41;;;;;;;13.32;8.25;;;16.50;99.90;;;;;;5046190;28;20505;-78
2023/09/26 08:36:17;;;;;;;11.98;8.57;;;16.50;99.90;;;;;;5050086;28;20127;-78
2023/09/26 08:38:43;;;;;;;12.15;8.23;;;16.40;99.90;;;;;;5050796;28;20557;-78
2023/09/26 08:41:10;;;;;;;12.63;8.10;;;16.40;99.90;;;;;;5050444;28;20037;-78
2023/09/26 08:43:36;;;;;;;12.73;8.07;;;16.40;99.90;;;;;;5050749;28;20045;-77
2023/09/26 08:46:02;;;;;;;12.02;7.93;;;16.40;99.90;;;;;;5049527;28;20049;-78
2023/09/26 08:48:29;;;;;;;10.27;7.50;;;16.40;99.90;;;;;;5050186;28;20462;-78
2023/09/26 08:50:54;;;;;;;10.18;8.18;;;16.40;99.90;;;;;;5051398;28;20101;-79
2023/09/26 08:53:20;;;;;;;9.57;7.72;;;16.40;99.90;;;;;;5051871;28;20068;-78
2023/09/26 08:55:45;;;;;;;13.52;8.55;;;16.40;99.90;;;;;;5050804;28;20040;-78
2023/09/26 08:58:14;;;;;;;13.52;7.80;;;16.40;99.90;;;;;;5035868;28;20512;-77
2023/09/26 09:00:40;;;;;;;11.07;8.15;;;16.50;99.90;;;;;;5054067;28;20049;-78
2023/09/26 09:03:05;;;;;;;11.75;8.18;;;16.50;99.90;;;;;;5035395;28;20075;-78
2023/09/26 09:05:31;;;;;;;11.15;8.10;;;16.60;99.90;;;;;;5047447;28;20036;-79
2023/09/26 09:07:56;;;;;;;10.98;7.90;;;16.70;99.90;;;;;;5052343;28;20620;-78
2023/09/26 09:10:23;;;;;;;12.77;8.40;;;17.00;99.90;;;;;;5052985;28;20090;-78
2023/09/26 09:12:50;;;;;;;12.23;7.75;;;17.10;99.90;;;;;;5054163;28;20171;-78
2023/09/26 09:15:15;;;;;;;11.32;7.40;;;17.20;99.90;;;;;;5037952;28;20044;-77
2023/09/26 09:17:42;;;;;;;12.43;7.78;;;17.30;99.90;;;;;;5054716;28;20045;-78
2023/09/26 09:20:09;;;;;;;10.48;7.72;;;17.50;99.90;;;;;;5037725;28;20033;-78
2023/09/26 09:22:35;;;;;;;12.60;7.57;;;17.60;99.90;;;;;;5037605;28;20084;-78
2023/09/26 09:25:01;;;;;;;10.38;7.15;;;17.80;99.90;;;;;;5055235;28;20041;-77
2023/09/26 09:27:38;;;;;;;11.35;6.63;;;17.80;99.90;;;;;;5050585;28;20120;-77
2023/09/26 09:30:04;;;;;;;12.00;6.85;;;17.90;99.90;;;;;;5048916;28;20037;-78
2023/09/26 09:32:30;;;;;;;9.85;6.97;;;17.80;99.90;;;;;;5034743;28;20106;-78
2023/09/26 09:34:56;;;;;;;9.73;6.07;;;17.80;99.90;;;;;;5050647;28;20056;-78
2023/09/26 09:37:21;;;;;;;11.07;6.07;;;17.90;99.90;;;;;;5052797;28;20550;-78
2023/09/26 09:39:47;;;;;;;10.00;6.80;;;18.00;99.90;;;;;;5051634;28;20137;-79
2023/09/26 09:42:13;;;;;;;12.02;6.78;;;18.10;99.90;;;;;;5050656;28;20528;-78
2023/09/26 09:44:38;;;;;;;10.52;6.68;;;18.20;99.90;;;;;;5050281;28;20044;-78
2023/09/26 09:47:04;;;;;;;15.23;7.05;;;18.30;99.90;;;;;;5052124;28;20049;-78
2023/09/26 09:49:32;;;;;;;10.70;6.40;;;18.50;99.90;;;;;;5055151;28;20029;-78
2023/09/26 09:52:04;;;;;;;11.98;6.82;;;18.60;99.90;;;;;;5059035;28;20658;-80
2023/09/26 09:54:36;;;;;;;10.95;6.88;;;18.70;99.90;;;;;;5051769;28;20099;-78
2023/09/26 09:57:09;;;;;;;9.07;6.28;;;18.80;99.90;;;;;;5057022;28;20124;-76
2023/09/26 09:59:37;;;;;;;9.07;6.78;;;19.00;99.90;;;;;;5056633;28;20041;-78
2023/09/26 10:02:04;;;;;;;11.45;6.85;;;19.00;99.90;;;;;;5057079;28;20052;-77
2023/09/26 10:04:31;;;;;;;11.52;6.43;;;19.10;99.90;;;;;;5055189;28;20040;-78
2023/09/26 10:06:58;;;;;;;9.95;6.53;;;19.10;99.90;;;;;;5039032;28;20041;-79
2023/09/26 10:09:24;;;;;;;11.85;6.18;;;19.10;99.90;;;;;;5057701;28;20047;-77
2023/09/26 10:11:52;;;;;;;10.35;6.40;;;19.20;99.90;;;;;;5052939;28;20044;-77
2023/09/26 10:14:28;;;;;;;12.27;6.38;;;19.30;99.90;;;;;;5052847;28;20041;-76
2023/09/26 10:16:55;;;;;;;8.82;6.30;;;19.30;99.90;;;;;;5035952;28;20075;-76
2023/09/26 10:19:24;;;;;;;9.45;6.18;;;19.40;99.90;;;;;;5052320;28;20071;-76
2023/09/26 10:21:49;;;;;;;12.38;5.70;;;19.50;99.90;;;;;;5052786;28;20056;-76
2023/09/26 10:24:16;;;;;;;8.90;5.80;;;19.50;99.90;;;;;;5052519;28;20033;-75
2023/09/26 10:26:49;;;;;;;10.25;5.35;;;19.60;99.90;;;;;;5051377;28;20403;-76
2023/09/26 10:29:20;;;;;;;9.60;5.00;;;19.60;99.90;;;;;;5051839;28;20389;-77
2023/09/26 10:31:53;;;;;;;7.97;4.70;;;19.70;99.90;;;;;;5036417;28;20442;-76
2023/09/26 10:34:21;;;;;;;7.55;4.75;;;19.80;99.90;;;;;;5035910;28;20048;-76
2023/09/26 10:36:47;;;;;;;11.13;4.88;;;19.90;99.90;;;;;;5048469;28;20049;-76
2023/09/26 10:39:14;;;;;;;9.93;5.03;;;19.90;99.90;;;;;;5043180;28;20044;-76
2023/09/26 10:41:40;;;;;;;9.32;4.78;;;19.90;99.90;;;;;;5024912;28;20562;-77
2023/09/26 10:44:06;;;;;;;8.23;4.45;;;19.90;99.90;;;;;;5045272;28;20067;-77
2023/09/26 10:46:32;;;;;;;7.28;4.05;;;19.90;99.90;;;;;;5048930;28;20036;-77
2023/09/26 10:48:57;;;;;;;7.05;4.07;;;19.90;99.90;;;;;;5051156;28;20041;-76
2023/09/26 10:51:23;;;;;;;7.18;4.10;;;20.00;99.90;;;;;;5048775;28;20052;-77
2023/09/26 10:53:49;;;;;;;5.95;4.07;;;20.00;99.90;;;;;;5026773;28;20048;-76
2023/09/26 10:56:15;;;;;;;7.25;3.78;;;20.00;99.90;;;;;;5043249;28;20041;-77
2023/09/26 10:58:41;;;;;;;6.18;3.60;;;20.10;99.90;;;;;;5043312;28;20033;-77
2023/09/26 11:01:08;;;;;;;8.20;3.80;;;20.20;99.90;;;;;;5040347;28;20083;-77
2023/09/26 11:03:34;;;;;;;8.80;3.72;;;20.30;99.90;;;;;;5051065;28;20037;-77
2023/09/26 11:06:01;;;;;;;9.23;4.30;;;20.30;99.90;;;;;;5045023;28;20041;-77
2023/09/26 11:08:28;;;;;;;6.82;3.65;;;20.40;99.90;;;;;;5044081;28;20041;-77
2023/09/26 11:10:53;;;;;;;5.85;3.88;;;20.40;99.90;;;;;;5052521;28;20041;-77
2023/09/26 11:13:21;;;;;;;6.50;3.80;;;20.40;99.90;;;;;;5042941;28;20037;-77
2023/09/26 11:15:51;;;;;;;6.03;3.88;;;20.40;99.90;;;;;;5047874;28;20048;-78
2023/09/26 11:18:17;;;;;;;4.85;3.40;;;20.40;99.90;;;;;;5042911;28;20095;-78
2023/09/26 11:20:43;;;;;;;6.03;3.47;;;20.30;99.90;;;;;;5041795;28;20618;-80
2023/09/26 11:23:09;;;;;;;6.75;3.47;;;20.30;99.90;;;;;;5040795;28;20037;-79
2023/09/26 11:25:34;;;;;;;6.65;4.00;;;20.30;99.90;;;;;;5046132;28;20503;-80
2023/09/26 11:28:01;;;;;;;7.35;4.00;;;20.30;99.90;;;;;;5056808;28;20090;-80
2023/09/26 11:30:27;;;;;;;5.50;3.47;;;20.30;99.90;;;;;;5053388;28;20527;-79
2023/09/26 11:32:54;;;;;;;9.05;4.35;;;20.30;99.90;;;;;;5030768;28;20097;-79
2023/09/26 11:35:25;;;;;;;5.65;3.40;;;20.40;99.90;;;;;;5047412;28;20041;-80
2023/09/26 11:37:52;;;;;;;6.28;3.85;;;20.40;99.90;;;;;;5048727;28;20040;-79
2023/09/26 11:40:26;;;;;;;4.78;3.60;;;20.40;99.90;;;;;;5051334;28;20060;-79
2023/09/26 11:42:55;;;;;;;6.85;3.65;;;20.40;99.90;;;;;;5044980;28;20081;-79
2023/09/26 11:45:22;;;;;;;6.68;3.38;;;20.40;99.90;;;;;;5049128;28;20143;-80
2023/09/26 11:47:49;;;;;;;7.15;3.92;;;20.40;99.90;;;;;;5052039;28;20443;-79
2023/09/26 11:50:15;;;;;;;7.35;3.53;;;20.50;99.90;;;;;;5046578;28;20606;-80
2023/09/26 11:52:41;;;;;;;4.55;3.50;;;20.40;99.90;;;;;;5048719;28;20047;-79
2023/09/26 11:55:07;;;;;;;5.40;3.35;;;20.60;99.90;;;;;;5044879;28;20053;-79
2023/09/26 11:57:36;;;;;;;6.28;3.70;;;20.60;99.90;;;;;;5048624;28;20389;-78
2023/09/26 12:00:11;;;;;;;7.68;4.13;;;20.70;99.90;;;;;;5051730;28;20516;-79
2023/09/26 12:02:38;;;;;;;7.75;3.72;;;20.80;99.90;;;;;;5044077;28;20044;-79
2023/09/26 12:05:03;;;;;;;6.15;3.67;;;20.80;99.90;;;;;;5045593;28;20045;-79
2023/09/26 12:07:29;;;;;;;5.80;3.10;;;20.80;99.90;;;;;;5040968;28;20772;-79
2023/09/26 12:09:55;;;;;;;5.57;3.90;;;20.90;99.90;;;;;;5057376;28;20048;-79
2023/09/26 12:12:20;;;;;;;6.47;3.90;;;20.90;99.90;;;;;;5047301;28;20653;-79
2023/09/26 12:14:48;;;;;;;5.03;3.72;;;20.90;99.90;;;;;;5048305;28;20041;-79
2023/09/26 12:17:13;;;;;;;5.97;4.53;;;20.90;99.90;;;;;;5054076;28;20051;-79
2023/09/26 12:19:39;;;;;;;6.82;4.15;;;20.90;99.90;;;;;;5030792;28;20116;-80
2023/09/26 12:22:04;;;;;;;5.45;3.95;;;20.90;99.90;;;;;;5049294;28;20040;-80
2023/09/26 12:24:30;;;;;;;8.10;4.28;;;21.00;99.90;;;;;;5048859;28;20033;-80
2023/09/26 12:26:55;;;;;;;8.27;4.20;;;21.10;99.90;;;;;;5053392;28;20064;-80
2023/09/26 12:29:21;;;;;;;7.07;4.30;;;21.20;99.90;;;;;;5043514;28;20050;-80
2023/09/26 12:31:46;;;;;;;8.68;4.53;;;21.30;99.90;;;;;;5052591;28;20037;-80
2023/09/26 12:34:14;;;;;;;6.38;4.30;;;21.40;99.90;;;;;;5045416;28;20037;-80
2023/09/26 12:36:39;;;;;;;5.75;3.90;;;21.50;99.90;;;;;;5037611;28;20560;-79
2023/09/26 12:39:07;;;;;;;5.70;4.15;;;21.50;99.90;;;;;;5053603;28;20068;-80